sensor_id;sensor_type;location;lat;lon;timestamp;P1;durP1;ratioP1;P2;durP2;ratioP2
75628;SDS011;64213;46.452;16.994;2023-02-15T00:02:13;44.80;;;16.93;;
75628;SDS011;64213;46.452;16.994;2023-02-15T00:05:15;38.97;;;15.57;;
75628;SDS011;64213;46.452;16.994;2023-02-15T00:08:18;42.13;;;16.83;;
75628;SDS011;64213;46.452;16.994;2023-02-15T00:11:20;44.88;;;16.02;;
75628;SDS011;64213;46.452;16.994;2023-02-15T00:14:41;43.75;;;15.18;;
75628;SDS011;64213;46.452;16.994;2023-02-15T00:17:44;38.23;;;15.60;;
75628;SDS011;64213;46.452;16.994;2023-02-15T00:20:46;43.03;;;16.23;;
75628;SDS011;64213;46.452;16.994;2023-02-15T00:23:48;39.97;;;16.55;;
75628;SDS011;64213;46.452;16.994;2023-02-15T00:26:51;41.42;;;16.42;;
75628;SDS011;64213;46.452;16.994;2023-02-15T00:29:54;37.85;;;14.70;;
75628;SDS011;64213;46.452;16.994;2023-02-15T00:32:56;47.87;;;17.40;;
75628;SDS011;64213;46.452;16.994;2023-02-15T00:35:59;41.27;;;15.80;;
75628;SDS011;64213;46.452;16.994;2023-02-15T00:39:03;43.35;;;16.75;;
75628;SDS011;64213;46.452;16.994;2023-02-15T00:42:06;45.12;;;17.27;;
75628;SDS011;64213;46.452;16.994;2023-02-15T00:45:08;47.97;;;18.77;;
75628;SDS011;64213;46.452;16.994;2023-02-15T00:48:11;44.17;;;18.07;;
75628;SDS011;64213;46.452;16.994;2023-02-15T00:51:13;43.93;;;18.33;;
75628;SDS011;64213;46.452;16.994;2023-02-15T00:54:16;54.63;;;19.58;;
75628;SDS011;64213;46.452;16.994;2023-02-15T00:57:18;46.33;;;19.10;;
75628;SDS011;64213;46.452;16.994;2023-02-15T01:00:20;47.83;;;19.87;;
75628;SDS011;64213;46.452;16.994;2023-02-15T01:03:23;56.23;;;21.17;;
75628;SDS011;64213;46.452;16.994;2023-02-15T01:06:26;53.60;;;20.50;;
75628;SDS011;64213;46.452;16.994;2023-02-15T01:09:28;54.83;;;19.52;;
75628;SDS011;64213;46.452;16.994;2023-02-15T01:12:31;47.53;;;17.17;;
75628;SDS011;64213;46.452;16.994;2023-02-15T01:15:35;47.50;;;18.33;;
75628;SDS011;64213;46.452;16.994;2023-02-15T01:18:37;51.40;;;19.40;;
75628;SDS011;64213;46.452;16.994;2023-02-15T01:21:40;49.40;;;19.87;;
75628;SDS011;64213;46.452;16.994;2023-02-15T01:24:43;52.45;;;18.10;;
75628;SDS011;64213;46.452;16.994;2023-02-15T01:27:45;42.75;;;16.80;;
75628;SDS011;64213;46.452;16.994;2023-02-15T01:30:48;56.42;;;18.92;;
75628;SDS011;64213;46.452;16.994;2023-02-15T01:33:51;39.70;;;16.23;;
75628;SDS011;64213;46.452;16.994;2023-02-15T01:36:53;44.93;;;17.63;;
75628;SDS011;64213;46.452;16.994;2023-02-15T01:39:55;51.63;;;18.58;;
75628;SDS011;64213;46.452;16.994;2023-02-15T01:42:58;42.97;;;16.75;;
75628;SDS011;64213;46.452;16.994;2023-02-15T01:46:00;43.78;;;17.05;;
75628;SDS011;64213;46.452;16.994;2023-02-15T01:49:13;45.80;;;17.40;;
75628;SDS011;64213;46.452;16.994;2023-02-15T01:52:18;45.27;;;15.53;;
75628;SDS011;64213;46.452;16.994;2023-02-15T01:55:22;40.80;;;17.00;;
75628;SDS011;64213;46.452;16.994;2023-02-15T01:58:27;44.20;;;16.55;;
75628;SDS011;64213;46.452;16.994;2023-02-15T02:01:31;46.47;;;18.02;;
75628;SDS011;64213;46.452;16.994;2023-02-15T02:04:35;42.13;;;17.50;;
75628;SDS011;64213;46.452;16.994;2023-02-15T02:07:43;40.43;;;16.60;;
75628;SDS011;64213;46.452;16.994;2023-02-15T02:10:47;40.83;;;16.52;;
75628;SDS011;64213;46.452;16.994;2023-02-15T02:13:50;45.38;;;17.70;;
75628;SDS011;64213;46.452;16.994;2023-02-15T02:23:35;41.67;;;16.27;;
75628;SDS011;64213;46.452;16.994;2023-02-15T02:40:25;43.97;;;17.43;;
75628;SDS011;64213;46.452;16.994;2023-02-15T02:43:47;44.05;;;17.87;;
75628;SDS011;64213;46.452;16.994;2023-02-15T02:50:06;42.53;;;16.45;;
75628;SDS011;64213;46.452;16.994;2023-02-15T02:53:10;45.17;;;17.93;;
75628;SDS011;64213;46.452;16.994;2023-02-15T02:57:06;47.80;;;17.63;;
75628;SDS011;64213;46.452;16.994;2023-02-15T03:00:03;46.47;;;17.83;;
75628;SDS011;64213;46.452;16.994;2023-02-15T03:03:11;44.20;;;17.58;;
75628;SDS011;64213;46.452;16.994;2023-02-15T03:06:28;43.33;;;17.08;;
75628;SDS011;64213;46.452;16.994;2023-02-15T03:09:39;44.37;;;18.27;;
75628;SDS011;64213;46.452;16.994;2023-02-15T03:12:44;39.47;;;16.30;;
75628;SDS011;64213;46.452;16.994;2023-02-15T03:15:47;41.60;;;17.98;;
75628;SDS011;64213;46.452;16.994;2023-02-15T03:19:15;48.03;;;19.27;;
75628;SDS011;64213;46.452;16.994;2023-02-15T03:22:29;47.25;;;20.52;;
75628;SDS011;64213;46.452;16.994;2023-02-15T03:25:39;42.03;;;17.00;;
75628;SDS011;64213;46.452;16.994;2023-02-15T03:28:44;46.03;;;16.67;;
75628;SDS011;64213;46.452;16.994;2023-02-15T03:31:50;38.97;;;14.98;;
75628;SDS011;64213;46.452;16.994;2023-02-15T03:34:58;51.67;;;18.10;;
75628;SDS011;64213;46.452;16.994;2023-02-15T03:38:01;46.55;;;17.23;;
75628;SDS011;64213;46.452;16.994;2023-02-15T03:41:06;41.10;;;15.80;;
75628;SDS011;64213;46.452;16.994;2023-02-15T03:44:27;38.57;;;14.90;;
75628;SDS011;64213;46.452;16.994;2023-02-15T03:47:33;44.80;;;17.02;;
75628;SDS011;64213;46.452;16.994;2023-02-15T03:50:40;36.03;;;15.20;;
75628;SDS011;64213;46.452;16.994;2023-02-15T03:54:06;39.47;;;16.05;;
75628;SDS011;64213;46.452;16.994;2023-02-15T04:00:40;39.93;;;15.97;;
75628;SDS011;64213;46.452;16.994;2023-02-15T04:04:20;44.55;;;18.15;;
75628;SDS011;64213;46.452;16.994;2023-02-15T04:07:26;34.80;;;15.70;;
75628;SDS011;64213;46.452;16.994;2023-02-15T04:10:28;37.88;;;15.88;;
75628;SDS011;64213;46.452;16.994;2023-02-15T04:13:49;50.67;;;16.63;;
75628;SDS011;64213;46.452;16.994;2023-02-15T04:16:58;37.80;;;15.97;;
75628;SDS011;64213;46.452;16.994;2023-02-15T04:20:00;41.97;;;16.08;;
75628;SDS011;64213;46.452;16.994;2023-02-15T04:23:22;38.65;;;16.23;;
75628;SDS011;64213;46.452;16.994;2023-02-15T04:26:43;42.53;;;16.87;;
75628;SDS011;64213;46.452;16.994;2023-02-15T04:29:46;40.43;;;16.13;;
75628;SDS011;64213;46.452;16.994;2023-02-15T04:32:51;41.90;;;16.87;;
75628;SDS011;64213;46.452;16.994;2023-02-15T04:35:55;38.00;;;15.20;;
75628;SDS011;64213;46.452;16.994;2023-02-15T04:38:58;41.25;;;16.25;;
75628;SDS011;64213;46.452;16.994;2023-02-15T04:42:00;41.65;;;17.27;;
75628;SDS011;64213;46.452;16.994;2023-02-15T04:45:03;40.07;;;17.23;;
75628;SDS011;64213;46.452;16.994;2023-02-15T04:48:06;46.27;;;18.03;;
75628;SDS011;64213;46.452;16.994;2023-02-15T04:51:08;40.45;;;16.10;;
75628;SDS011;64213;46.452;16.994;2023-02-15T04:54:11;40.60;;;16.33;;
75628;SDS011;64213;46.452;16.994;2023-02-15T04:57:14;44.83;;;16.33;;
75628;SDS011;64213;46.452;16.994;2023-02-15T05:00:17;41.70;;;16.97;;
75628;SDS011;64213;46.452;16.994;2023-02-15T05:03:19;45.03;;;16.87;;
75628;SDS011;64213;46.452;16.994;2023-02-15T05:06:21;44.67;;;16.27;;
75628;SDS011;64213;46.452;16.994;2023-02-15T05:09:24;43.65;;;16.62;;
75628;SDS011;64213;46.452;16.994;2023-02-15T05:12:27;32.25;;;13.45;;
75628;SDS011;64213;46.452;16.994;2023-02-15T05:15:29;43.10;;;16.37;;
75628;SDS011;64213;46.452;16.994;2023-02-15T05:18:32;45.17;;;15.07;;
75628;SDS011;64213;46.452;16.994;2023-02-15T05:21:34;40.15;;;16.62;;
75628;SDS011;64213;46.452;16.994;2023-02-15T05:24:37;45.33;;;17.42;;
75628;SDS011;64213;46.452;16.994;2023-02-15T05:27:57;31.00;;;12.18;;
75628;SDS011;64213;46.452;16.994;2023-02-15T05:31:19;35.17;;;14.87;;
75628;SDS011;64213;46.452;16.994;2023-02-15T05:34:22;40.43;;;15.77;;
75628;SDS011;64213;46.452;16.994;2023-02-15T05:37:24;43.00;;;16.50;;
75628;SDS011;64213;46.452;16.994;2023-02-15T05:40:27;45.72;;;17.10;;
75628;SDS011;64213;46.452;16.994;2023-02-15T05:43:29;40.30;;;17.23;;
75628;SDS011;64213;46.452;16.994;2023-02-15T05:46:33;43.73;;;16.70;;
75628;SDS011;64213;46.452;16.994;2023-02-15T05:49:35;40.27;;;16.00;;
75628;SDS011;64213;46.452;16.994;2023-02-15T05:52:38;39.03;;;16.30;;
75628;SDS011;64213;46.452;16.994;2023-02-15T05:55:40;44.22;;;17.00;;
75628;SDS011;64213;46.452;16.994;2023-02-15T05:58:43;46.92;;;17.55;;
75628;SDS011;64213;46.452;16.994;2023-02-15T06:01:45;43.90;;;17.33;;
75628;SDS011;64213;46.452;16.994;2023-02-15T06:04:47;44.00;;;15.53;;
75628;SDS011;64213;46.452;16.994;2023-02-15T06:07:50;41.88;;;16.55;;
75628;SDS011;64213;46.452;16.994;2023-02-15T06:10:52;40.97;;;16.10;;
75628;SDS011;64213;46.452;16.994;2023-02-15T06:13:54;40.22;;;14.68;;
75628;SDS011;64213;46.452;16.994;2023-02-15T06:16:57;49.67;;;19.17;;
75628;SDS011;64213;46.452;16.994;2023-02-15T06:19:59;37.43;;;16.90;;
75628;SDS011;64213;46.452;16.994;2023-02-15T06:23:01;43.63;;;16.80;;
75628;SDS011;64213;46.452;16.994;2023-02-15T06:26:04;44.60;;;17.17;;
75628;SDS011;64213;46.452;16.994;2023-02-15T06:29:06;40.42;;;16.08;;
75628;SDS011;64213;46.452;16.994;2023-02-15T06:32:09;48.20;;;17.00;;
75628;SDS011;64213;46.452;16.994;2023-02-15T06:35:11;39.33;;;17.53;;
75628;SDS011;64213;46.452;16.994;2023-02-15T06:38:14;46.75;;;18.00;;
75628;SDS011;64213;46.452;16.994;2023-02-15T06:41:16;50.65;;;19.37;;
75628;SDS011;64213;46.452;16.994;2023-02-15T06:44:19;47.25;;;18.50;;
75628;SDS011;64213;46.452;16.994;2023-02-15T06:47:21;43.97;;;18.40;;
75628;SDS011;64213;46.452;16.994;2023-02-15T06:50:23;48.40;;;18.70;;
75628;SDS011;64213;46.452;16.994;2023-02-15T06:53:26;35.35;;;14.05;;
75628;SDS011;64213;46.452;16.994;2023-02-15T06:56:29;47.55;;;18.58;;
75628;SDS011;64213;46.452;16.994;2023-02-15T06:59:31;43.75;;;18.17;;
75628;SDS011;64213;46.452;16.994;2023-02-15T07:02:34;43.90;;;16.67;;
75628;SDS011;64213;46.452;16.994;2023-02-15T07:05:36;42.27;;;16.00;;
75628;SDS011;64213;46.452;16.994;2023-02-15T07:08:39;30.35;;;13.02;;
75628;SDS011;64213;46.452;16.994;2023-02-15T07:11:41;44.05;;;18.00;;
75628;SDS011;64213;46.452;16.994;2023-02-15T07:15:02;43.45;;;17.08;;
75628;SDS011;64213;46.452;16.994;2023-02-15T07:18:07;49.43;;;19.67;;
75628;SDS011;64213;46.452;16.994;2023-02-15T07:21:10;41.40;;;16.67;;
75628;SDS011;64213;46.452;16.994;2023-02-15T07:24:13;48.30;;;18.37;;
75628;SDS011;64213;46.452;16.994;2023-02-15T07:27:16;54.28;;;19.98;;
75628;SDS011;64213;46.452;16.994;2023-02-15T07:30:18;48.33;;;18.98;;
75628;SDS011;64213;46.452;16.994;2023-02-15T07:33:21;37.40;;;16.50;;
75628;SDS011;64213;46.452;16.994;2023-02-15T07:36:26;47.80;;;17.90;;
75628;SDS011;64213;46.452;16.994;2023-02-15T07:39:28;45.42;;;18.40;;
75628;SDS011;64213;46.452;16.994;2023-02-15T07:42:31;48.38;;;20.02;;
75628;SDS011;64213;46.452;16.994;2023-02-15T07:45:33;49.80;;;19.58;;
75628;SDS011;64213;46.452;16.994;2023-02-15T07:48:36;45.87;;;18.47;;
75628;SDS011;64213;46.452;16.994;2023-02-15T07:51:38;44.63;;;18.10;;
75628;SDS011;64213;46.452;16.994;2023-02-15T07:54:42;46.55;;;20.37;;
75628;SDS011;64213;46.452;16.994;2023-02-15T07:57:45;45.60;;;17.65;;
75628;SDS011;64213;46.452;16.994;2023-02-15T08:00:49;45.30;;;18.67;;
75628;SDS011;64213;46.452;16.994;2023-02-15T08:04:03;49.37;;;17.63;;
75628;SDS011;64213;46.452;16.994;2023-02-15T08:07:07;40.90;;;16.20;;
75628;SDS011;64213;46.452;16.994;2023-02-15T08:10:09;40.17;;;16.50;;
75628;SDS011;64213;46.452;16.994;2023-02-15T08:13:32;35.92;;;15.23;;
75628;SDS011;64213;46.452;16.994;2023-02-15T08:19:42;41.47;;;16.03;;
75628;SDS011;64213;46.452;16.994;2023-02-15T08:22:44;47.40;;;19.23;;
75628;SDS011;64213;46.452;16.994;2023-02-15T08:25:47;49.03;;;20.80;;
75628;SDS011;64213;46.452;16.994;2023-02-15T08:28:50;45.30;;;15.18;;
75628;SDS011;64213;46.452;16.994;2023-02-15T08:31:54;38.88;;;15.07;;
75628;SDS011;64213;46.452;16.994;2023-02-15T08:35:00;38.80;;;14.87;;
75628;SDS011;64213;46.452;16.994;2023-02-15T08:38:03;40.83;;;15.10;;
75628;SDS011;64213;46.452;16.994;2023-02-15T08:41:09;43.75;;;16.85;;
75628;SDS011;64213;46.452;16.994;2023-02-15T08:44:13;41.80;;;17.33;;
75628;SDS011;64213;46.452;16.994;2023-02-15T08:47:17;37.90;;;13.00;;
75628;SDS011;64213;46.452;16.994;2023-02-15T08:50:19;34.73;;;13.97;;
75628;SDS011;64213;46.452;16.994;2023-02-15T08:53:22;36.23;;;14.10;;
75628;SDS011;64213;46.452;16.994;2023-02-15T08:56:26;34.53;;;13.90;;
75628;SDS011;64213;46.452;16.994;2023-02-15T08:59:30;34.92;;;13.98;;
75628;SDS011;64213;46.452;16.994;2023-02-15T09:02:33;35.75;;;13.30;;
75628;SDS011;64213;46.452;16.994;2023-02-15T09:05:35;37.80;;;13.00;;
75628;SDS011;64213;46.452;16.994;2023-02-15T09:08:38;33.50;;;13.77;;
75628;SDS011;64213;46.452;16.994;2023-02-15T09:11:42;38.90;;;15.85;;
75628;SDS011;64213;46.452;16.994;2023-02-15T09:14:46;36.70;;;13.55;;
75628;SDS011;64213;46.452;16.994;2023-02-15T09:17:48;35.20;;;13.88;;
75628;SDS011;64213;46.452;16.994;2023-02-15T09:20:50;38.43;;;14.90;;
75628;SDS011;64213;46.452;16.994;2023-02-15T09:23:56;40.07;;;13.97;;
75628;SDS011;64213;46.452;16.994;2023-02-15T09:27:01;43.58;;;16.20;;
75628;SDS011;64213;46.452;16.994;2023-02-15T09:30:03;43.13;;;15.35;;
75628;SDS011;64213;46.452;16.994;2023-02-15T09:33:06;38.45;;;14.45;;
75628;SDS011;64213;46.452;16.994;2023-02-15T09:36:29;32.77;;;14.50;;
75628;SDS011;64213;46.452;16.994;2023-02-15T09:39:36;37.97;;;15.43;;
75628;SDS011;64213;46.452;16.994;2023-02-15T09:42:48;37.22;;;14.95;;
75628;SDS011;64213;46.452;16.994;2023-02-15T09:46:06;29.95;;;11.98;;
75628;SDS011;64213;46.452;16.994;2023-02-15T09:56:31;27.37;;;10.70;;
75628;SDS011;64213;46.452;16.994;2023-02-15T10:03:20;21.60;;;7.90;;
75628;SDS011;64213;46.452;16.994;2023-02-15T10:06:41;26.10;;;10.02;;
75628;SDS011;64213;46.452;16.994;2023-02-15T10:13:39;20.53;;;7.47;;
75628;SDS011;64213;46.452;16.994;2023-02-15T10:20:43;21.87;;;9.65;;
75628;SDS011;64213;46.452;16.994;2023-02-15T10:27:45;24.47;;;9.93;;
75628;SDS011;64213;46.452;16.994;2023-02-15T10:30:58;24.97;;;10.37;;
75628;SDS011;64213;46.452;16.994;2023-02-15T10:41:00;21.85;;;10.00;;
75628;SDS011;64213;46.452;16.994;2023-02-15T10:44:26;23.93;;;10.10;;
75628;SDS011;64213;46.452;16.994;2023-02-15T10:47:48;24.87;;;10.97;;
75628;SDS011;64213;46.452;16.994;2023-02-15T10:50:56;26.40;;;11.07;;
75628;SDS011;64213;46.452;16.994;2023-02-15T10:54:06;25.98;;;11.48;;
75628;SDS011;64213;46.452;16.994;2023-02-15T11:07:29;25.73;;;10.38;;
75628;SDS011;64213;46.452;16.994;2023-02-15T11:10:52;22.70;;;10.15;;
75628;SDS011;64213;46.452;16.994;2023-02-15T11:13:59;22.95;;;10.82;;
75628;SDS011;64213;46.452;16.994;2023-02-15T11:17:12;23.92;;;10.50;;
75628;SDS011;64213;46.452;16.994;2023-02-15T11:20:23;23.13;;;10.90;;
75628;SDS011;64213;46.452;16.994;2023-02-15T11:23:31;23.80;;;11.25;;
75628;SDS011;64213;46.452;16.994;2023-02-15T11:26:38;23.00;;;10.13;;
75628;SDS011;64213;46.452;16.994;2023-02-15T11:29:57;24.05;;;11.27;;
75628;SDS011;64213;46.452;16.994;2023-02-15T11:33:02;24.73;;;10.27;;
75628;SDS011;64213;46.452;16.994;2023-02-15T11:36:10;23.20;;;10.63;;
75628;SDS011;64213;46.452;16.994;2023-02-15T11:39:19;23.50;;;11.77;;
75628;SDS011;64213;46.452;16.994;2023-02-15T11:42:23;26.10;;;11.90;;
75628;SDS011;64213;46.452;16.994;2023-02-15T11:45:31;25.92;;;11.60;;
75628;SDS011;64213;46.452;16.994;2023-02-15T11:48:36;24.50;;;12.02;;
75628;SDS011;64213;46.452;16.994;2023-02-15T11:51:39;27.57;;;11.53;;
75628;SDS011;64213;46.452;16.994;2023-02-15T11:54:42;26.55;;;12.43;;
75628;SDS011;64213;46.452;16.994;2023-02-15T11:57:53;23.70;;;10.60;;
75628;SDS011;64213;46.452;16.994;2023-02-15T12:01:08;23.58;;;10.77;;
75628;SDS011;64213;46.452;16.994;2023-02-15T12:04:25;19.83;;;8.88;;
75628;SDS011;64213;46.452;16.994;2023-02-15T12:07:46;24.37;;;11.10;;
75628;SDS011;64213;46.452;16.994;2023-02-15T12:10:56;22.50;;;10.20;;
75628;SDS011;64213;46.452;16.994;2023-02-15T12:14:06;22.13;;;11.85;;
75628;SDS011;64213;46.452;16.994;2023-02-15T12:17:12;22.17;;;11.25;;
75628;SDS011;64213;46.452;16.994;2023-02-15T12:23:18;23.33;;;10.37;;
75628;SDS011;64213;46.452;16.994;2023-02-15T12:26:31;26.27;;;11.60;;
75628;SDS011;64213;46.452;16.994;2023-02-15T12:29:41;24.65;;;11.23;;
75628;SDS011;64213;46.452;16.994;2023-02-15T12:36:03;27.50;;;11.88;;
75628;SDS011;64213;46.452;16.994;2023-02-15T12:42:16;23.15;;;9.93;;
75628;SDS011;64213;46.452;16.994;2023-02-15T12:45:22;24.95;;;10.98;;
75628;SDS011;64213;46.452;16.994;2023-02-15T12:48:27;22.00;;;10.13;;
75628;SDS011;64213;46.452;16.994;2023-02-15T12:51:29;24.45;;;11.02;;
75628;SDS011;64213;46.452;16.994;2023-02-15T12:54:36;24.10;;;10.87;;
75628;SDS011;64213;46.452;16.994;2023-02-15T12:57:45;25.80;;;11.82;;
75628;SDS011;64213;46.452;16.994;2023-02-15T13:01:01;26.70;;;11.35;;
75628;SDS011;64213;46.452;16.994;2023-02-15T13:04:22;23.20;;;11.32;;
75628;SDS011;64213;46.452;16.994;2023-02-15T13:07:29;25.00;;;12.10;;
75628;SDS011;64213;46.452;16.994;2023-02-15T13:10:35;23.57;;;11.07;;
75628;SDS011;64213;46.452;16.994;2023-02-15T13:13:55;23.83;;;11.88;;
75628;SDS011;64213;46.452;16.994;2023-02-15T13:17:03;23.27;;;10.45;;
75628;SDS011;64213;46.452;16.994;2023-02-15T13:20:16;24.95;;;11.50;;
75628;SDS011;64213;46.452;16.994;2023-02-15T13:26:26;24.33;;;10.43;;
75628;SDS011;64213;46.452;16.994;2023-02-15T13:29:36;26.48;;;11.57;;
75628;SDS011;64213;46.452;16.994;2023-02-15T13:32:40;23.77;;;10.27;;
75628;SDS011;64213;46.452;16.994;2023-02-15T13:35:47;20.92;;;10.35;;
75628;SDS011;64213;46.452;16.994;2023-02-15T13:46:07;22.75;;;11.63;;
75628;SDS011;64213;46.452;16.994;2023-02-15T13:52:51;24.95;;;11.40;;
75628;SDS011;64213;46.452;16.994;2023-02-15T13:59:54;21.87;;;10.47;;
75628;SDS011;64213;46.452;16.994;2023-02-15T14:13:44;23.75;;;10.65;;
75628;SDS011;64213;46.452;16.994;2023-02-15T14:20:57;23.20;;;10.30;;
75628;SDS011;64213;46.452;16.994;2023-02-15T14:30:53;23.98;;;10.05;;
75628;SDS011;64213;46.452;16.994;2023-02-15T14:33:57;20.10;;;8.57;;
75628;SDS011;64213;46.452;16.994;2023-02-15T14:36:59;22.83;;;10.65;;
75628;SDS011;64213;46.452;16.994;2023-02-15T14:40:06;16.95;;;7.90;;
75628;SDS011;64213;46.452;16.994;2023-02-15T14:47:08;18.62;;;7.28;;
75628;SDS011;64213;46.452;16.994;2023-02-15T14:53:50;24.45;;;10.73;;
75628;SDS011;64213;46.452;16.994;2023-02-15T15:00:15;25.05;;;10.82;;
75628;SDS011;64213;46.452;16.994;2023-02-15T15:03:33;21.13;;;8.83;;
75628;SDS011;64213;46.452;16.994;2023-02-15T15:06:38;23.00;;;9.80;;
75628;SDS011;64213;46.452;16.994;2023-02-15T15:09:42;26.15;;;10.13;;
75628;SDS011;64213;46.452;16.994;2023-02-15T15:12:47;23.80;;;8.80;;
75628;SDS011;64213;46.452;16.994;2023-02-15T15:15:55;28.23;;;11.80;;
75628;SDS011;64213;46.452;16.994;2023-02-15T15:18:58;22.70;;;9.63;;
75628;SDS011;64213;46.452;16.994;2023-02-15T15:22:04;25.73;;;10.03;;
75628;SDS011;64213;46.452;16.994;2023-02-15T15:25:11;35.17;;;13.25;;
75628;SDS011;64213;46.452;16.994;2023-02-15T15:35:02;27.60;;;9.57;;
75628;SDS011;64213;46.452;16.994;2023-02-15T15:38:33;24.13;;;9.47;;
75628;SDS011;64213;46.452;16.994;2023-02-15T15:48:33;22.15;;;8.82;;
75628;SDS011;64213;46.452;16.994;2023-02-15T15:51:40;28.97;;;10.93;;
75628;SDS011;64213;46.452;16.994;2023-02-15T15:54:45;27.17;;;11.77;;
75628;SDS011;64213;46.452;16.994;2023-02-15T15:57:51;25.77;;;10.88;;
75628;SDS011;64213;46.452;16.994;2023-02-15T16:01:06;26.23;;;11.43;;
75628;SDS011;64213;46.452;16.994;2023-02-15T16:04:21;22.15;;;10.02;;
75628;SDS011;64213;46.452;16.994;2023-02-15T16:07:31;28.37;;;12.53;;
75628;SDS011;64213;46.452;16.994;2023-02-15T16:10:33;26.53;;;10.93;;
75628;SDS011;64213;46.452;16.994;2023-02-15T16:13:40;24.55;;;11.02;;
75628;SDS011;64213;46.452;16.994;2023-02-15T16:16:48;29.95;;;12.52;;
75628;SDS011;64213;46.452;16.994;2023-02-15T16:19:59;27.85;;;11.20;;
75628;SDS011;64213;46.452;16.994;2023-02-15T16:30:20;26.95;;;11.02;;
75628;SDS011;64213;46.452;16.994;2023-02-15T16:33:33;25.12;;;10.63;;
75628;SDS011;64213;46.452;16.994;2023-02-15T16:36:40;46.83;;;17.33;;
75628;SDS011;64213;46.452;16.994;2023-02-15T16:39:43;36.90;;;14.67;;
75628;SDS011;64213;46.452;16.994;2023-02-15T16:42:51;32.07;;;12.27;;
75628;SDS011;64213;46.452;16.994;2023-02-15T16:46:03;35.80;;;13.65;;
75628;SDS011;64213;46.452;16.994;2023-02-15T16:49:15;31.20;;;13.15;;
75628;SDS011;64213;46.452;16.994;2023-02-15T16:52:28;39.00;;;14.25;;
75628;SDS011;64213;46.452;16.994;2023-02-15T16:55:42;42.80;;;19.50;;
75628;SDS011;64213;46.452;16.994;2023-02-15T16:58:45;45.63;;;20.07;;
75628;SDS011;64213;46.452;16.994;2023-02-15T17:01:53;41.97;;;17.17;;
75628;SDS011;64213;46.452;16.994;2023-02-15T17:05:01;59.20;;;20.98;;
75628;SDS011;64213;46.452;16.994;2023-02-15T17:08:15;42.47;;;14.95;;
75628;SDS011;64213;46.452;16.994;2023-02-15T17:11:40;37.73;;;16.37;;
75628;SDS011;64213;46.452;16.994;2023-02-15T17:14:45;38.80;;;16.97;;
75628;SDS011;64213;46.452;16.994;2023-02-15T17:17:49;43.13;;;17.02;;
75628;SDS011;64213;46.452;16.994;2023-02-15T17:20:54;37.63;;;14.90;;
75628;SDS011;64213;46.452;16.994;2023-02-15T17:24:02;33.15;;;12.77;;
75628;SDS011;64213;46.452;16.994;2023-02-15T17:27:28;39.07;;;15.63;;
75628;SDS011;64213;46.452;16.994;2023-02-15T17:30:34;50.03;;;18.97;;
75628;SDS011;64213;46.452;16.994;2023-02-15T17:33:41;47.10;;;19.20;;
75628;SDS011;64213;46.452;16.994;2023-02-15T17:36:57;54.53;;;21.48;;
75628;SDS011;64213;46.452;16.994;2023-02-15T17:40:22;57.50;;;22.37;;
75628;SDS011;64213;46.452;16.994;2023-02-15T17:43:28;55.07;;;21.03;;
75628;SDS011;64213;46.452;16.994;2023-02-15T17:46:34;44.47;;;18.57;;
75628;SDS011;64213;46.452;16.994;2023-02-15T17:49:43;47.05;;;18.62;;
75628;SDS011;64213;46.452;16.994;2023-02-15T17:52:52;46.10;;;19.30;;
75628;SDS011;64213;46.452;16.994;2023-02-15T17:55:58;56.78;;;22.15;;
75628;SDS011;64213;46.452;16.994;2023-02-15T17:59:02;75.70;;;29.00;;
75628;SDS011;64213;46.452;16.994;2023-02-15T18:02:14;83.73;;;31.00;;
75628;SDS011;64213;46.452;16.994;2023-02-15T18:05:37;63.63;;;24.37;;
75628;SDS011;64213;46.452;16.994;2023-02-15T18:09:02;60.12;;;23.92;;
75628;SDS011;64213;46.452;16.994;2023-02-15T18:12:31;55.47;;;20.62;;
75628;SDS011;64213;46.452;16.994;2023-02-15T18:15:41;45.43;;;18.43;;
75628;SDS011;64213;46.452;16.994;2023-02-15T18:18:46;43.00;;;17.07;;
75628;SDS011;64213;46.452;16.994;2023-02-15T18:21:51;45.03;;;19.23;;
75628;SDS011;64213;46.452;16.994;2023-02-15T18:24:57;47.42;;;19.42;;
75628;SDS011;64213;46.452;16.994;2023-02-15T18:28:02;43.13;;;19.42;;
75628;SDS011;64213;46.452;16.994;2023-02-15T18:31:08;47.67;;;19.20;;
75628;SDS011;64213;46.452;16.994;2023-02-15T18:34:19;43.60;;;17.27;;
75628;SDS011;64213;46.452;16.994;2023-02-15T18:37:29;38.85;;;14.35;;
75628;SDS011;64213;46.452;16.994;2023-02-15T18:40:35;40.08;;;16.90;;
75628;SDS011;64213;46.452;16.994;2023-02-15T18:43:39;36.45;;;14.75;;
75628;SDS011;64213;46.452;16.994;2023-02-15T18:46:44;57.00;;;22.27;;
75628;SDS011;64213;46.452;16.994;2023-02-15T18:49:47;63.43;;;24.37;;
75628;SDS011;64213;46.452;16.994;2023-02-15T18:52:51;53.20;;;21.40;;
75628;SDS011;64213;46.452;16.994;2023-02-15T18:55:57;62.42;;;23.33;;
75628;SDS011;64213;46.452;16.994;2023-02-15T18:59:01;59.97;;;23.27;;
75628;SDS011;64213;46.452;16.994;2023-02-15T19:02:13;41.77;;;17.00;;
75628;SDS011;64213;46.452;16.994;2023-02-15T19:05:22;60.77;;;22.87;;
75628;SDS011;64213;46.452;16.994;2023-02-15T19:08:30;49.17;;;19.35;;
75628;SDS011;64213;46.452;16.994;2023-02-15T19:11:35;60.72;;;22.15;;
75628;SDS011;64213;46.452;16.994;2023-02-15T19:14:39;57.72;;;22.55;;
75628;SDS011;64213;46.452;16.994;2023-02-15T19:17:43;57.77;;;24.10;;
75628;SDS011;64213;46.452;16.994;2023-02-15T19:20:47;62.20;;;23.80;;
75628;SDS011;64213;46.452;16.994;2023-02-15T19:23:55;62.42;;;25.75;;
75628;SDS011;64213;46.452;16.994;2023-02-15T19:27:10;61.05;;;25.08;;
75628;SDS011;64213;46.452;16.994;2023-02-15T19:30:28;63.10;;;24.12;;
75628;SDS011;64213;46.452;16.994;2023-02-15T19:33:34;67.53;;;25.00;;
75628;SDS011;64213;46.452;16.994;2023-02-15T19:36:39;73.67;;;26.93;;
75628;SDS011;64213;46.452;16.994;2023-02-15T19:39:45;82.70;;;30.23;;
75628;SDS011;64213;46.452;16.994;2023-02-15T19:42:49;77.70;;;28.27;;
75628;SDS011;64213;46.452;16.994;2023-02-15T19:45:54;72.75;;;28.35;;
75628;SDS011;64213;46.452;16.994;2023-02-15T19:49:00;76.87;;;28.90;;
75628;SDS011;64213;46.452;16.994;2023-02-15T19:52:10;68.73;;;26.03;;
75628;SDS011;64213;46.452;16.994;2023-02-15T19:55:30;53.85;;;19.62;;
75628;SDS011;64213;46.452;16.994;2023-02-15T19:58:39;54.78;;;21.73;;
75628;SDS011;64213;46.452;16.994;2023-02-15T20:01:45;54.10;;;20.77;;
75628;SDS011;64213;46.452;16.994;2023-02-15T20:04:49;52.53;;;20.90;;
75628;SDS011;64213;46.452;16.994;2023-02-15T20:07:55;50.17;;;19.00;;
75628;SDS011;64213;46.452;16.994;2023-02-15T20:11:09;37.70;;;14.80;;
75628;SDS011;64213;46.452;16.994;2023-02-15T20:14:22;45.47;;;19.05;;
75628;SDS011;64213;46.452;16.994;2023-02-15T20:17:28;42.85;;;17.87;;
75628;SDS011;64213;46.452;16.994;2023-02-15T20:20:40;39.83;;;16.73;;
75628;SDS011;64213;46.452;16.994;2023-02-15T20:24:02;46.37;;;18.43;;
75628;SDS011;64213;46.452;16.994;2023-02-15T20:27:11;44.17;;;16.92;;
75628;SDS011;64213;46.452;16.994;2023-02-15T20:30:21;42.65;;;16.25;;